Sebastian, Florida
Current Conditions -  °F | °C
As of 5:53 AM on Wednesday 22 Oct 2014 (Local Time) from KVRB Reporting Station
Haze Haze  
Wind Chill: 67°   Ceiling: 200
Heat Index: 67°   Visibility: 0.25mi
Dew Point: 60°   Wind: 3mph
Humidity: 79%   Direction: 270°W
Pressure: 29.93"   Gusts: NA
Location:  27.82°N, 80.47°W
Report Text: KVRB 220953Z AUTO 27003KT 1/4SM HZ VV002 19/16 A2993 RMK AO2 SLP135 T01940156 $
Loading
Personal Weather Stations






























Interactive Weather Map
Tropical Storm Tracking
New forecast layout! Learn more

10-Day Weather Forecast

Advertisements
Track Severe Weather on mobile